Flight Track Log - Related Links

Times and Time Zones

All times are in EST time to prevent confusion due to time zone crossing. See the SWA4995 flight status page for this flight to view local times or setup timezone preferences in your user account.

Time Position Orientation Groundspeed Altitude Reporting Facility
EST Latitude Longitude Course Direction KTS MPH feet Rate Location/Type
Fri 09:37:55 PM 37.7333 -122.2500 288° West 164 189 1,400  Level Northern Cal TRACON
Fri 09:38:55 PM 37.7500 -122.3167 288° West 226 260 4,000 2,737 Climbing Northern Cal TRACON
Fri 09:39:49 PM 37.7667 -122.3833 288° West 240 276 6,600 3,000 Climbing Northern Cal TRACON
Fri 09:40:23 PM 37.7392 -122.4236 229° Southwest 254 292 8,400 3,188 Climbing Oakland Center
Fri 09:41:25 PM 37.6611 -122.4519 196° South 289 333 11,700 3,415 Climbing Oakland Center
Fri 09:42:26 PM 37.5714 -122.4656 187° South 333 383 15,400 3,246 Climbing Oakland Center
Fri 09:43:27 PM 37.4989 -122.3819 138° Southeast 355 409 18,300 2,878 Climbing Oakland Center
Fri 09:44:29 PM 37.3997 -122.2731 139° Southeast 398 458 21,300 2,683 Climbing Oakland Center
Fri 09:45:30 PM 37.3106 -122.1772 139° Southeast 419 482 23,800 2,508 Climbing Oakland Center
Fri 09:46:31 PM 37.2156 -122.0764 140° Southeast 444 511 26,400 2,311 Climbing Oakland Center
Fri 09:47:32 PM 37.1189 -121.9714 139° Southeast 459 528 28,500 1,756 Climbing Oakland Center
Fri 09:48:34 PM 37.0172 -121.8625 139° Southeast 482 555 30,000 1,463 Climbing Oakland Center
Fri 09:49:35 PM 36.9075 -121.7500 141° Southeast 510 587 31,500 1,672 Climbing Oakland Center
Fri 09:50:36 PM 36.8031 -121.6386 139° Southeast 517 595 33,400 1,854 Climbing Oakland Center
Fri 09:51:38 PM 36.6725 -121.4961 139° Southeast 521 600 35,300 1,756 Climbing Oakland Center
Fri 09:52:39 PM 36.5594 -121.3817 141° Southeast 526 605 37,000 836 Climbing Oakland Center
Fri 09:53:40 PM 36.4525 -121.2675 139° Southeast 510 587 37,000  Level Oakland Center
Fri 09:54:41 PM 36.3447 -121.1542 140° Southeast 508 585 37,000  Level Oakland Center
Fri 09:55:43 PM 36.2389 -121.0414 139° Southeast 505 581 37,000  Level Oakland Center
Fri 09:56:44 PM 36.1311 -120.9297 140° Southeast 505 581 37,000  Level Oakland Center
Fri 09:57:45 PM 36.0239 -120.8186 140° Southeast 505 581 37,000  Level Oakland Center
Fri 09:58:46 PM 35.9169 -120.7081 140° Southeast 501 577 37,000  Level Oakland Center
Fri 09:59:48 PM 35.8103 -120.5964 140° Southeast 503 579 37,000  Level Oakland Center
Fri 10:00:49 PM 35.7039 -120.4872 140° Southeast 500 575 37,000  Level Oakland Center
Fri 10:01:50 PM 35.5753 -120.3544 140° Southeast 499 574 37,000 -49 Level Oakland Center
Fri 10:02:51 PM 35.4889 -120.2642 140° Southeast 497 572 36,900 -1,561 Descending Oakland Center
Fri 10:03:53 PM 35.3764 -120.1517 141° Southeast 504 580 33,800 -3,415 Descending Oakland Center
Fri 10:04:54 PM 35.2394 -120.0122 140° Southeast 523 602 29,900 -3,393 Descending Oakland Center
Fri 10:05:55 PM 35.1269 -119.9000 141° Southeast 523 602 26,900 -2,634 Descending Oakland Center
Fri 10:06:57 PM 35.0281 -119.7792 135° Southeast 504 580 24,500 -2,049 Descending Oakland Center
Fri 10:07:58 PM 34.9403 -119.6600 132° Southeast 482 555 22,700 -1,475 Descending Oakland Center
Fri 10:08:59 PM 34.8600 -119.5531 132° Southeast 444 511 21,500 -1,230 Descending Oakland Center
Fri 10:10:00 PM 34.7850 -119.4500 132° Southeast 417 480 20,200 -1,623 Descending Oakland Center
Fri 10:11:01 PM 34.7108 -119.3514 132° Southeast 402 463 18,200 -1,854 Descending Oakland Center
Fri 10:12:03 PM 34.6403 -119.2569 132° Southeast 391 450 16,400 -2,015 Descending Oakland Center
Fri 10:13:12 PM 34.5678 -119.1314 125° Southeast 357 411 13,800 -2,153 Descending Los Angeles Center
Fri 10:14:14 PM 34.5161 -119.0300 122° Southeast 351 404 11,700 -1,694 Descending Los Angeles Center
Fri 10:15:16 PM 34.4464 -118.9614 141° Southeast 331 381 10,300 -1,220 Descending Los Angeles Center
Fri 10:16:17 PM 34.3822 -118.9014 142° Southeast 293 337 9,200 -1,268 Descending Los Angeles Center
Fri 10:17:19 PM 34.3344 -118.8228 126° Southeast 288 331 7,700 -1,452 Descending Los Angeles Center
Fri 10:18:21 PM 34.2867 -118.7497 128° Southeast 275 316 6,200 -1,268 Descending Los Angeles Center
Fri 10:19:22 PM 34.2417 -118.6747 126° Southeast 276 318 5,100 -780 Descending Los Angeles Center
Fri 10:20:24 PM 34.2008 -118.6022 124° Southeast 223 257 4,600 -677 Descending Los Angeles Center
Fri 10:21:26 PM 34.2008 -118.5422 90° East 187 215 3,700 -829 Descending Los Angeles Center
Fri 10:22:27 PM 34.1997 -118.4892 91° East 172 198 2,900 -878 Descending Los Angeles Center
Fri 10:23:29 PM 34.1989 -118.4411 91° East 158 182 1,900 -884 Descending Los Angeles Center
Fri 10:24:36 PM 34.2000 -118.3833 89° East 137 158 1,000 -806 Descending Southern California TRACON

Login

Don't have an account? Register now (free) for customized features, flight alerts, and more!